Time;durP1;ratioP1;P1;durP2;ratioP2;P2;SDS_P1;SDS_P2;PMS_P1;PMS_P2;Temp;Humidity;BMP_temperature;BMP_pressure;BME280_temperature;BME280_humidity;BME280_pressure;Samples;Min_cycle;Max_cycle;Signal;HPM_P1;HPM_P2
2022/09/24 00:00:52;;;;;;;9.35;6.03;;;10.40;99.90;;;;;;5058917;28;20028;-51
2022/09/24 00:03:22;;;;;;;9.38;6.50;;;10.30;99.90;;;;;;5057596;28;20119;-50
2022/09/24 00:05:48;;;;;;;9.13;6.18;;;10.00;99.90;;;;;;5034304;28;20037;-50
2022/09/24 00:08:15;;;;;;;6.65;5.25;;;;;;;;;;5053565;28;20379;-50
2022/09/24 00:10:43;;;;;;;9.65;5.40;;;9.50;99.90;;;;;;5058512;28;20055;-50
2022/09/24 00:13:12;;;;;;;7.70;5.60;;;9.10;99.90;;;;;;5062057;28;20021;-51
2022/09/24 00:15:39;;;;;;;7.55;5.55;;;9.20;99.90;;;;;;5048947;28;20044;-51
2022/09/24 00:18:06;;;;;;;6.38;5.10;;;9.30;99.90;;;;;;5058068;28;20087;-49
2022/09/24 00:20:34;;;;;;;6.90;5.47;;;9.50;99.90;;;;;;5057119;28;20033;-52
2022/09/24 00:23:00;;;;;;;7.30;5.20;;;9.60;99.90;;;;;;5057383;28;20124;-50
2022/09/24 00:28:12;;;;;;;8.95;5.10;;;9.80;99.90;;;;;;5062032;28;20534;-51
2022/09/24 00:30:40;;;;;;;8.50;4.90;;;9.90;99.90;;;;;;5062578;28;20040;-52
2022/09/24 00:33:06;;;;;;;6.65;4.75;;;10.00;99.90;;;;;;5070851;28;20028;-50
2022/09/24 00:35:33;;;;;;;7.40;4.78;;;10.00;99.90;;;;;;5061544;28;20072;-52
2022/09/24 00:37:59;;;;;;;7.53;4.35;;;9.80;99.90;;;;;;5061196;28;20033;-51
2022/09/24 00:40:28;;;;;;;7.35;4.47;;;9.90;99.90;;;;;;5057432;28;20032;-50
2022/09/24 00:42:54;;;;;;;7.72;4.75;;;10.10;99.90;;;;;;5057524;28;20068;-50
2022/09/24 00:45:20;;;;;;;7.35;5.10;;;10.20;99.90;;;;;;5061214;28;20028;-51
2022/09/24 00:47:47;;;;;;;5.57;4.97;;;10.20;99.90;;;;;;5037122;28;20033;-49
2022/09/24 00:50:18;;;;;;;8.02;5.13;;;10.20;99.90;;;;;;5057210;28;20432;-51
2022/09/24 00:53:07;;;;;;;7.35;4.78;;;10.10;99.90;;;;;;5057748;28;20059;-51
2022/09/24 00:55:36;;;;;;;9.48;4.85;;;10.00;99.90;;;;;;5058464;28;20043;-50
2022/09/24 00:58:05;;;;;;;6.72;4.90;;;9.80;99.90;;;;;;5037811;28;20033;-52
2022/09/24 01:00:31;;;;;;;7.72;4.95;;;9.90;99.90;;;;;;5057409;28;20570;-50
2022/09/24 01:03:11;;;;;;;5.70;4.43;;;10.10;99.90;;;;;;5061778;28;20052;-52
2022/09/24 01:05:38;;;;;;;7.05;4.82;;;10.10;99.90;;;;;;5058527;28;20028;-50
2022/09/24 01:08:06;;;;;;;7.40;4.93;;;10.20;99.90;;;;;;5055362;28;20346;-50
2022/09/24 01:10:59;;;;;;;6.95;4.88;;;10.20;99.90;;;;;;5056751;28;20052;-50
2022/09/24 01:13:39;;;;;;;5.95;4.95;;;10.20;99.90;;;;;;5065681;28;20476;-51
2022/09/24 01:16:26;;;;;;;6.95;5.00;;;10.20;99.90;;;;;;5056807;28;20028;-49
2022/09/24 01:18:59;;;;;;;8.15;5.13;;;10.20;99.90;;;;;;5051501;28;20423;-49
2022/09/24 01:21:25;;;;;;;7.43;4.68;;;10.20;99.90;;;;;;5058482;28;20032;-51
2022/09/24 01:24:12;;;;;;;7.55;4.88;;;10.20;99.90;;;;;;5055202;28;20037;-52
2022/09/24 01:26:57;;;;;;;6.60;4.68;;;10.20;99.90;;;;;;5017068;28;20660;-50
2022/09/24 01:29:32;;;;;;;9.43;4.95;;;10.10;99.90;;;;;;5060295;28;20032;-49
2022/09/24 01:32:09;;;;;;;8.70;5.30;;;10.10;99.90;;;;;;5051345;28;20067;-50
2022/09/24 01:34:44;;;;;;;7.55;5.68;;;10.00;99.90;;;;;;5055567;28;20029;-51
2022/09/24 01:37:13;;;;;;;7.50;5.90;;;10.00;99.90;;;;;;5060359;28;20041;-50
2022/09/24 01:39:40;;;;;;;6.90;5.50;;;10.10;99.90;;;;;;5062829;28;20115;-50
2022/09/24 01:42:09;;;;;;;8.93;6.22;;;10.00;99.90;;;;;;5064194;28;20051;-51
2022/09/24 01:44:36;;;;;;;9.55;6.13;;;10.00;99.90;;;;;;5061990;28;20414;-50
2022/09/24 01:47:05;;;;;;;11.40;7.00;;;10.00;99.90;;;;;;5056606;28;20037;-52
2022/09/24 01:49:31;;;;;;;8.85;6.50;;;10.00;99.90;;;;;;5058930;28;20042;-51
2022/09/24 01:52:00;;;;;;;8.52;6.60;;;10.00;99.90;;;;;;5052795;28;20028;-50
2022/09/24 01:54:49;;;;;;;8.35;6.38;;;10.00;99.90;;;;;;5038198;28;20461;-51
2022/09/24 01:57:26;;;;;;;10.55;7.35;;;10.00;99.90;;;;;;5054883;28;20063;-50
2022/09/24 02:00:09;;;;;;;14.50;6.95;;;9.80;99.90;;;;;;5057132;28;20063;-50
2022/09/24 02:03:03;;;;;;;13.07;7.25;;;9.70;99.90;;;;;;5020393;28;20037;-52
2022/09/24 02:05:37;;;;;;;9.02;7.60;;;9.60;99.90;;;;;;5059206;28;20476;-50
2022/09/24 02:08:05;;;;;;;9.13;7.70;;;9.70;99.90;;;;;;5055358;28;20044;-51
2022/09/24 02:10:37;;;;;;;11.60;8.10;;;9.80;99.90;;;;;;5032892;28;20426;-50
2022/09/24 02:13:07;;;;;;;11.77;8.60;;;9.80;99.90;;;;;;5032067;28;20039;-52
2022/09/24 02:15:37;;;;;;;11.15;8.70;;;9.90;99.90;;;;;;5026050;28;20029;-52
2022/09/24 02:18:07;;;;;;;10.65;7.70;;;9.80;99.90;;;;;;5047793;28;20037;-52
2022/09/24 02:20:35;;;;;;;10.45;8.43;;;9.90;99.90;;;;;;5037879;28;20041;-50
2022/09/24 02:23:02;;;;;;;10.73;8.27;;;9.80;99.90;;;;;;5020969;28;20380;-52
2022/09/24 02:25:43;;;;;;;13.55;9.23;;;9.70;99.90;;;;;;5034287;28;20124;-53
2022/09/24 02:28:09;;;;;;;9.85;8.10;;;9.50;99.90;;;;;;5034202;28;20049;-50
2022/09/24 02:30:42;;;;;;;13.38;8.93;;;9.40;99.90;;;;;;5034155;28;20033;-50
2022/09/24 02:34:19;;;;;;;10.00;7.75;;;9.60;99.90;;;;;;5032962;28;20041;-51
2022/09/24 02:35:57;;;;;;;13.25;8.63;;;9.60;99.90;;;;;;5038791;28;20497;-50
2022/09/24 02:38:23;;;;;;;12.27;9.05;;;9.40;99.90;;;;;;5039052;28;20555;-52
2022/09/24 02:40:49;;;;;;;13.75;8.98;;;9.00;99.90;;;;;;5020147;28;20037;-50
2022/09/24 02:43:15;;;;;;;15.25;9.45;;;8.90;99.90;;;;;;5058111;28;20064;-51
2022/09/24 02:45:40;;;;;;;10.52;8.15;;;9.00;99.90;;;;;;5054024;28;20068;-52
2022/09/24 02:48:06;;;;;;;10.90;8.18;;;9.20;99.90;;;;;;5054637;28;20032;-50
2022/09/24 02:50:32;;;;;;;12.80;8.68;;;9.30;99.90;;;;;;5061446;28;20033;-51
2022/09/24 02:52:58;;;;;;;16.27;10.15;;;9.30;99.90;;;;;;5054205;28;20025;-51
2022/09/24 02:55:24;;;;;;;16.13;10.63;;;9.20;99.90;;;;;;5060220;28;20024;-52
2022/09/24 02:57:49;;;;;;;12.95;9.10;;;9.30;99.90;;;;;;5044277;28;20041;-51
2022/09/24 03:00:19;;;;;;;10.45;8.30;;;9.20;99.90;;;;;;5052552;28;20041;-51
2022/09/24 03:02:46;;;;;;;11.50;8.32;;;8.70;99.90;;;;;;5018174;28;20079;-51
2022/09/24 03:05:16;;;;;;;11.80;8.85;;;;;;;;;;5057331;28;20090;-52
2022/09/24 03:07:43;;;;;;;10.68;7.90;;;8.20;99.90;;;;;;5058767;28;20040;-50
2022/09/24 03:10:09;;;;;;;10.52;8.18;;;8.20;99.90;;;;;;5059038;28;20032;-51
2022/09/24 03:12:35;;;;;;;13.50;8.68;;;8.20;99.90;;;;;;5014011;28;20044;-52
2022/09/24 03:15:01;;;;;;;12.45;8.30;;;8.40;99.90;;;;;;5017373;28;20435;-51
2022/09/24 03:17:27;;;;;;;13.30;9.50;;;8.60;99.90;;;;;;5050824;28;20024;-49
2022/09/24 03:19:53;;;;;;;14.73;10.38;;;8.60;99.90;;;;;;5053463;28;20115;-50
2022/09/24 03:22:19;;;;;;;11.85;9.70;;;8.50;99.90;;;;;;5056767;28;20072;-50
2022/09/24 03:24:45;;;;;;;12.38;9.57;;;8.80;99.90;;;;;;5057922;28;20071;-50
2022/09/24 03:27:11;;;;;;;12.45;9.15;;;8.80;99.90;;;;;;5056759;28;20043;-50
2022/09/24 03:32:22;;;;;;;9.10;7.32;;;9.00;99.90;;;;;;4965676;28;20043;-50
2022/09/24 03:34:48;;;;;;;11.30;7.45;;;9.10;99.90;;;;;;4977339;28;20485;-51
2022/09/24 03:37:14;;;;;;;11.60;7.47;;;9.00;99.90;;;;;;4984605;28;20053;-50
2022/09/24 03:39:40;;;;;;;12.23;7.95;;;8.50;99.90;;;;;;4974468;28;20030;-51
2022/09/24 03:42:06;;;;;;;8.48;7.13;;;8.40;99.90;;;;;;4949731;28;20129;-51
2022/09/24 03:44:32;;;;;;;10.48;7.18;;;8.50;99.90;;;;;;4982229;28;20277;-51
2022/09/24 03:46:57;;;;;;;10.07;7.20;;;8.20;99.90;;;;;;4985542;28;20058;-50
2022/09/24 03:49:24;;;;;;;7.65;6.78;;;8.50;99.90;;;;;;4980764;28;20133;-52
2022/09/24 03:51:50;;;;;;;9.45;7.45;;;8.20;99.90;;;;;;4946830;28;20035;-51
2022/09/24 03:54:16;;;;;;;9.52;7.25;;;8.10;99.90;;;;;;4980459;28;20033;-50
2022/09/24 03:56:42;;;;;;;9.20;7.40;;;8.30;99.90;;;;;;4968587;28;20062;-51
2022/09/24 03:59:10;;;;;;;9.18;7.70;;;8.50;99.90;;;;;;4977446;28;20035;-51
2022/09/24 04:01:37;;;;;;;11.20;7.63;;;8.60;99.90;;;;;;4978779;28;20068;-51
2022/09/24 04:04:04;;;;;;;10.05;7.18;;;8.60;99.90;;;;;;4960116;28;20062;-51
2022/09/24 04:06:30;;;;;;;10.80;7.30;;;8.50;99.90;;;;;;4984503;28;20387;-51
2022/09/24 04:08:56;;;;;;;10.98;7.40;;;8.60;99.90;;;;;;5001632;28;20037;-51
2022/09/24 04:11:23;;;;;;;10.70;7.78;;;8.60;99.90;;;;;;5052852;28;20040;-50
2022/09/24 04:13:49;;;;;;;9.40;7.55;;;8.60;99.90;;;;;;5051744;28;20179;-50
2022/09/24 04:16:14;;;;;;;9.10;8.20;;;8.60;99.90;;;;;;5059896;28;20112;-50
2022/09/24 04:18:40;;;;;;;12.40;8.48;;;8.70;99.90;;;;;;5056184;28;20035;-50
2022/09/24 04:21:06;;;;;;;8.93;7.03;;;8.70;99.90;;;;;;5036067;28;20143;-50
2022/09/24 04:23:32;;;;;;;11.55;7.90;;;8.30;99.90;;;;;;5054799;28;20032;-51
2022/09/24 04:26:01;;;;;;;10.45;8.10;;;7.70;99.90;;;;;;5054788;28;20025;-50
2022/09/24 04:28:30;;;;;;;8.43;6.63;;;7.60;99.90;;;;;;5029341;28;20123;-50
2022/09/24 04:30:56;;;;;;;8.80;6.15;;;7.50;99.90;;;;;;5058601;28;20126;-50
2022/09/24 04:33:22;;;;;;;9.32;6.78;;;7.40;99.90;;;;;;5053472;28;20361;-50
2022/09/24 04:35:47;;;;;;;13.05;7.35;;;7.20;99.90;;;;;;5055271;28;20044;-50
2022/09/24 04:38:13;;;;;;;8.85;6.30;;;7.10;99.90;;;;;;5047469;28;20041;-50
2022/09/24 04:40:39;;;;;;;16.55;7.55;;;7.00;99.90;;;;;;5058171;28;20119;-51
2022/09/24 04:43:05;;;;;;;8.45;6.43;;;6.90;99.90;;;;;;5053607;28;20061;-51
2022/09/24 04:45:33;;;;;;;11.75;6.63;;;6.90;99.90;;;;;;5053866;28;20037;-49
2022/09/24 04:47:58;;;;;;;8.40;6.80;;;6.90;99.90;;;;;;5031448;28;20038;-49
2022/09/24 04:50:27;;;;;;;8.10;6.70;;;6.80;99.90;;;;;;5031595;28;20067;-51
2022/09/24 04:52:54;;;;;;;7.82;5.93;;;6.90;99.90;;;;;;5029433;28;20393;-50
2022/09/24 04:55:22;;;;;;;7.75;5.35;;;6.90;99.90;;;;;;5030592;28;20022;-51
2022/09/24 04:57:48;;;;;;;8.15;6.47;;;6.80;99.90;;;;;;5031572;28;20124;-50
2022/09/24 05:00:16;;;;;;;8.10;6.78;;;6.80;99.90;;;;;;5031213;28;20488;-50
2022/09/24 05:02:44;;;;;;;11.75;7.47;;;6.80;99.90;;;;;;5032483;28;20060;-49
2022/09/24 05:05:11;;;;;;;10.57;7.68;;;6.90;99.90;;;;;;5030894;28;20068;-49
2022/09/24 05:07:37;;;;;;;10.57;8.10;;;7.00;99.90;;;;;;5014813;28;20149;-49
2022/09/24 05:10:03;;;;;;;9.77;8.25;;;7.30;99.90;;;;;;4991687;28;20044;-51
2022/09/24 05:12:29;;;;;;;9.30;6.53;;;7.40;99.90;;;;;;4982196;28;20061;-50
2022/09/24 05:14:55;;;;;;;10.05;7.40;;;7.30;99.90;;;;;;5034808;28;20160;-50
2022/09/24 05:17:20;;;;;;;10.13;7.25;;;7.40;99.90;;;;;;5001073;28;20043;-51
2022/09/24 05:19:46;;;;;;;11.07;8.07;;;7.80;99.90;;;;;;5007601;28;20120;-52
2022/09/24 05:22:12;;;;;;;9.30;7.63;;;8.30;99.90;;;;;;5056989;28;20079;-50
2022/09/24 05:24:37;;;;;;;11.63;7.90;;;8.60;99.90;;;;;;5054513;28;20067;-50
2022/09/24 05:27:09;;;;;;;10.95;7.85;;;8.80;99.90;;;;;;5028542;28;20130;-51
2022/09/24 05:29:39;;;;;;;9.77;7.40;;;9.00;99.90;;;;;;5050513;28;20032;-52
2022/09/24 05:32:07;;;;;;;8.35;6.53;;;9.30;99.90;;;;;;5054212;28;20035;-50
2022/09/24 05:34:34;;;;;;;10.23;6.82;;;9.40;99.90;;;;;;5035122;28;20045;-51
2022/09/24 05:37:01;;;;;;;8.80;6.85;;;9.60;99.90;;;;;;5049003;28;20381;-51
2022/09/24 05:39:27;;;;;;;11.75;7.65;;;9.70;99.90;;;;;;5053020;28;20032;-51
2022/09/24 05:41:53;;;;;;;9.02;7.18;;;9.90;99.90;;;;;;5050715;28;20338;-52
2022/09/24 05:44:20;;;;;;;10.88;6.97;;;9.90;99.90;;;;;;5053600;28;20364;-52
2022/09/24 05:46:47;;;;;;;8.93;6.95;;;9.40;99.90;;;;;;5052257;28;20029;-49
2022/09/24 05:49:13;;;;;;;9.52;6.95;;;9.30;99.90;;;;;;5056488;28;20358;-51
2022/09/24 05:51:39;;;;;;;7.60;6.50;;;9.20;99.90;;;;;;5005118;28;20052;-51
2022/09/24 05:54:05;;;;;;;7.95;6.90;;;9.30;99.90;;;;;;5062106;28;20036;-50
2022/09/24 05:56:31;;;;;;;8.05;6.57;;;9.60;99.90;;;;;;5057687;28;20486;-50
2022/09/24 05:58:57;;;;;;;10.20;7.00;;;9.90;99.90;;;;;;5055754;28;20464;-51
2022/09/24 06:01:23;;;;;;;7.53;6.68;;;;;;;;;;5055337;28;20029;-57
2022/09/24 06:03:49;;;;;;;8.20;6.38;;;10.20;99.90;;;;;;5034816;28;20404;-50
2022/09/24 06:06:15;;;;;;;9.02;6.72;;;10.30;99.90;;;;;;5052521;28;20021;-51
2022/09/24 06:08:41;;;;;;;9.30;6.85;;;10.50;99.90;;;;;;5046598;28;20041;-50
2022/09/24 06:11:07;;;;;;;10.70;8.05;;;10.70;99.90;;;;;;5056256;28;20033;-51
2022/09/24 06:13:36;;;;;;;14.35;10.52;;;11.00;99.90;;;;;;5054447;28;20056;-50
2022/09/24 06:16:07;;;;;;;11.60;8.52;;;11.20;99.90;;;;;;5053785;28;20464;-51
2022/09/24 06:18:40;;;;;;;9.43;8.43;;;11.30;99.90;;;;;;5021443;28;20045;-51
2022/09/24 06:21:09;;;;;;;9.65;7.75;;;11.60;99.90;;;;;;5036733;28;20461;-51
2022/09/24 06:23:36;;;;;;;10.10;7.72;;;11.80;99.90;;;;;;5052830;28;20036;-52
2022/09/24 06:26:03;;;;;;;10.02;8.18;;;12.10;99.90;;;;;;5055009;28;20049;-51
2022/09/24 06:28:29;;;;;;;11.10;7.85;;;12.30;99.90;;;;;;5049675;28;20033;-51
2022/09/24 06:30:54;;;;;;;7.80;6.88;;;12.60;99.90;;;;;;5029596;28;20041;-49
2022/09/24 06:33:22;;;;;;;8.98;6.78;;;12.70;99.90;;;;;;5045280;28;20086;-50
2022/09/24 06:35:48;;;;;;;10.85;7.15;;;12.90;99.90;;;;;;5049953;28;20064;-51
2022/09/24 06:38:16;;;;;;;9.13;6.72;;;13.10;99.90;;;;;;5049147;28;20040;-51
2022/09/24 06:40:44;;;;;;;9.75;7.32;;;13.40;99.90;;;;;;5053369;28;20346;-50
2022/09/24 06:43:11;;;;;;;8.80;7.07;;;;;;;;;;5055667;28;20140;-51
2022/09/24 06:45:37;;;;;;;12.60;8.85;;;14.40;99.90;;;;;;5025029;28;20170;-51
2022/09/24 06:48:04;;;;;;;12.32;7.97;;;13.80;99.90;;;;;;5027319;28;20025;-49
2022/09/24 06:50:33;;;;;;;10.13;7.03;;;13.80;99.90;;;;;;5026338;28;20033;-50
2022/09/24 06:52:59;;;;;;;14.15;8.85;;;14.10;99.90;;;;;;5021941;28;20503;-49
2022/09/24 06:55:25;;;;;;;9.65;7.90;;;14.60;99.90;;;;;;5014769;28;20045;-50
2022/09/24 06:58:05;;;;;;;11.20;7.32;;;15.10;99.90;;;;;;5030276;28;20075;-51
2022/09/24 07:00:32;;;;;;;11.20;8.68;;;15.60;99.90;;;;;;4997348;28;20053;-50
2022/09/24 07:02:57;;;;;;;14.50;8.73;;;16.10;99.90;;;;;;5024754;28;20377;-51
2022/09/24 07:05:23;;;;;;;10.38;8.05;;;16.50;99.90;;;;;;5026400;28;20033;-50
2022/09/24 07:07:49;;;;;;;14.13;10.85;;;16.80;99.90;;;;;;4982251;28;20505;-50
2022/09/24 07:10:16;;;;;;;15.05;13.15;;;16.90;99.90;;;;;;5023028;28;20506;-50
2022/09/24 07:12:42;;;;;;;21.70;15.85;;;17.10;99.90;;;;;;5027046;28;20041;-49
2022/09/24 07:15:09;;;;;;;18.40;16.02;;;17.60;99.90;;;;;;5029588;28;20381;-49
2022/09/24 07:17:35;;;;;;;14.02;11.57;;;17.90;99.90;;;;;;5052437;28;20358;-50
2022/09/24 07:20:01;;;;;;;9.95;7.72;;;18.10;99.90;;;;;;5060718;28;20033;-50
2022/09/24 07:22:27;;;;;;;8.90;6.05;;;18.60;99.90;;;;;;5030125;28;20115;-51
2022/09/24 07:24:53;;;;;;;8.27;6.50;;;18.70;99.90;;;;;;5053127;28;20441;-50
2022/09/24 07:27:20;;;;;;;8.05;5.93;;;18.80;99.90;;;;;;5035144;28;20041;-50
2022/09/24 07:29:46;;;;;;;7.30;5.65;;;19.50;99.90;;;;;;5052889;28;20036;-50
2022/09/24 07:32:14;;;;;;;6.22;5.43;;;;;;;;;;5052170;28;20037;-50
2022/09/24 07:34:40;;;;;;;7.22;5.65;;;20.20;99.90;;;;;;5051593;28;20027;-50
2022/09/24 07:37:06;;;;;;;6.40;5.20;;;20.40;99.90;;;;;;4997461;28;20515;-50
2022/09/24 07:39:33;;;;;;;8.10;6.13;;;20.60;99.90;;;;;;5014545;28;20041;-51
2022/09/24 07:42:00;;;;;;;5.10;4.25;;;;;;;;;;4988823;28;20078;-51
2022/09/24 07:44:28;;;;;;;8.48;5.60;;;20.20;99.90;;;;;;4986144;28;20097;-51
2022/09/24 07:46:54;;;;;;;5.72;5.13;;;20.40;99.90;;;;;;4988824;28;20046;-50
2022/09/24 07:49:20;;;;;;;5.80;5.20;;;20.30;99.90;;;;;;4988730;28;20027;-51
2022/09/24 07:51:46;;;;;;;7.00;5.15;;;21.00;99.90;;;;;;4988848;28;20220;-51
2022/09/24 07:54:12;;;;;;;7.82;5.85;;;21.70;99.90;;;;;;4988711;28;20256;-48
2022/09/24 07:56:38;;;;;;;6.88;5.95;;;21.90;99.90;;;;;;4988165;28;20066;-49
2022/09/24 07:59:06;;;;;;;6.65;5.07;;;21.60;99.90;;;;;;4989431;28;20034;-50
2022/09/24 08:01:33;;;;;;;6.82;5.30;;;21.90;99.90;;;;;;4988924;28;20026;-49
2022/09/24 08:03:59;;;;;;;7.43;5.07;;;22.40;99.90;;;;;;4980367;28;20038;-48
2022/09/24 08:06:25;;;;;;;7.28;4.78;;;22.00;99.90;;;;;;4986991;28;20038;-50
2022/09/24 08:08:51;;;;;;;6.32;4.32;;;22.80;99.90;;;;;;5019193;28;20041;-49
2022/09/24 08:11:18;;;;;;;5.78;4.97;;;;;;;;;;5025369;28;20751;-49
2022/09/24 08:13:44;;;;;;;7.28;4.50;;;23.10;99.90;;;;;;4996806;28;20072;-50
2022/09/24 08:16:11;;;;;;;6.72;4.65;;;;;;;;;;4993314;28;20045;-51
2022/09/24 08:18:38;;;;;;;7.75;5.45;;;23.80;99.90;;;;;;5027312;28;20043;-50
2022/09/24 08:21:12;;;;;;;5.47;4.97;;;;;;;;;;5051268;28;20033;-48
2022/09/24 08:23:41;;;;;;;7.22;4.63;;;;;;;;;;5054451;28;20033;-51
2022/09/24 08:26:08;;;;;;;5.63;5.00;;;;;;;;;;5053399;28;20025;-49
2022/09/24 08:28:34;;;;;;;5.60;4.68;;;;;;;;;;5054677;28;20504;-49
2022/09/24 08:31:01;;;;;;;5.88;4.70;;;;;;;;;;5026595;28;20041;-49
2022/09/24 08:33:28;;;;;;;5.28;4.65;;;25.60;95.80;;;;;;5058873;28;20032;-50
2022/09/24 08:35:54;;;;;;;5.85;4.43;;;;;;;;;;5055026;28;20044;-49
2022/09/24 08:38:21;;;;;;;6.78;4.65;;;;;;;;;;5053343;28;20098;-49
2022/09/24 08:41:13;;;;;;;6.50;4.43;;;26.80;94.90;;;;;;5035190;28;20032;-49
2022/09/24 08:43:38;;;;;;;;;;;27.00;93.00;;;;;;5055274;28;20123;-49
2022/09/24 08:49:00;;;;;;;5.60;4.57;;;25.60;92.30;;;;;;5052076;28;20102;-49
2022/09/24 08:51:35;;;;;;;5.90;5.15;;;26.60;92.10;;;;;;5054320;28;20056;-49
2022/09/24 08:54:08;;;;;;;5.22;4.13;;;27.00;91.40;;;;;;5052301;28;20534;-50
2022/09/24 08:56:36;;;;;;;4.57;4.05;;;;;;;;;;5056388;28;20041;-50
2022/09/24 08:59:05;;;;;;;7.78;4.50;;;;;;;;;;5034928;28;20396;-49
2022/09/24 09:02:03;;;;;;;5.53;4.10;;;27.80;89.30;;;;;;5052711;28;20036;-50
2022/09/24 09:05:05;;;;;;;5.15;3.65;;;27.50;87.20;;;;;;5018618;28;20041;-50
2022/09/24 09:07:55;;;;;;;3.70;3.40;;;27.30;87.50;;;;;;5056644;28;20045;-49
2022/09/24 09:10:30;;;;;;;3.63;3.10;;;28.20;87.90;;;;;;5056526;28;20469;-51
2022/09/24 09:13:19;;;;;;;5.55;3.85;;;27.10;84.90;;;;;;5050222;28;20024;-49
2022/09/24 09:15:52;;;;;;;5.45;3.60;;;26.90;85.90;;;;;;5054933;28;20041;-48
2022/09/24 09:18:26;;;;;;;5.20;3.40;;;26.80;86.30;;;;;;5055068;28;20028;-49
2022/09/24 09:20:55;;;;;;;4.55;3.45;;;;;;;;;;5053771;28;20048;-50
2022/09/24 09:23:22;;;;;;;6.45;4.60;;;;;;;;;;5053822;28;20095;-50
2022/09/24 09:25:56;;;;;;;5.07;3.80;;;28.30;82.30;;;;;;5054378;28;20033;-51
2022/09/24 09:28:24;;;;;;;6.85;3.70;;;28.00;83.20;;;;;;5052146;28;20029;-50
2022/09/24 09:31:17;;;;;;;3.85;3.42;;;27.50;82.40;;;;;;5052260;28;20495;-49
2022/09/24 09:34:15;;;;;;;4.47;3.55;;;27.00;84.10;;;;;;5053242;28;20403;-50
2022/09/24 09:37:16;;;;;;;4.90;3.33;;;27.70;82.00;;;;;;5033190;28;20403;-51
2022/09/24 09:40:12;;;;;;;3.97;3.33;;;26.90;82.00;;;;;;5019598;28;20048;-51
2022/09/24 09:42:41;;;;;;;5.13;3.63;;;27.90;84.20;;;;;;4972437;28;20035;-51
2022/09/24 09:45:38;;;;;;;3.75;3.45;;;28.50;82.10;;;;;;4973844;28;20039;-51
2022/09/24 09:48:07;;;;;;;4.30;3.85;;;28.50;81.50;;;;;;4970740;28;20553;-49
2022/09/24 09:50:45;;;;;;;6.95;4.65;;;28.20;90.90;;;;;;4977487;28;20027;-48
2022/09/24 09:53:22;;;;;;;4.25;3.25;;;27.00;81.00;;;;;;4973501;28;20031;-50
2022/09/24 09:55:59;;;;;;;5.80;3.20;;;27.10;80.90;;;;;;4886497;29;20043;-49
2022/09/24 09:58:41;;;;;;;5.85;3.53;;;27.20;81.20;;;;;;4931333;29;20043;-50
2022/09/24 10:01:12;;;;;;;3.85;3.20;;;27.60;81.80;;;;;;4931621;29;20039;-50
2022/09/24 10:03:45;;;;;;;4.32;3.22;;;27.80;81.90;;;;;;4931827;29;20040;-51
2022/09/24 10:06:12;;;;;;;8.32;3.08;;;;;;;;;;4933958;29;20488;-50
2022/09/24 10:08:39;;;;;;;6.65;3.70;;;28.00;80.00;;;;;;4917238;29;20085;-49
2022/09/24 10:11:06;;;;;;;6.50;3.92;;;28.20;80.20;;;;;;4932526;29;20087;-50
2022/09/24 10:13:32;;;;;;;4.15;3.33;;;28.00;82.30;;;;;;4931709;29;20091;-50
2022/09/24 10:16:07;;;;;;;4.68;3.17;;;28.30;81.30;;;;;;4925304;29;20047;-49
2022/09/24 10:18:53;;;;;;;3.35;2.83;;;;;;;;;;4959869;28;20124;-49
2022/09/24 10:21:37;;;;;;;4.07;3.15;;;28.50;79.90;;;;;;5029395;28;20463;-49
2022/09/24 10:24:11;;;;;;;5.53;4.43;;;28.50;81.30;;;;;;5023782;28;20416;-49
2022/09/24 10:26:39;;;;;;;5.40;3.47;;;28.30;85.50;;;;;;5033514;28;20037;-50
2022/09/24 10:31:56;;;;;;;9.32;7.35;;;28.60;78.30;;;;;;5057845;28;20036;-51
2022/09/24 10:34:25;;;;;;;3.70;3.10;;;28.30;79.60;;;;;;5032432;28;20473;-48
2022/09/24 10:37:03;;;;;;;4.50;3.40;;;27.70;78.90;;;;;;5053299;28;20052;-51
2022/09/24 10:39:30;;;;;;;5.65;3.30;;;26.80;79.50;;;;;;5052824;28;20028;-50
2022/09/24 10:41:56;;;;;;;5.28;3.30;;;26.10;79.70;;;;;;5055579;28;20604;-51
2022/09/24 10:44:28;;;;;;;4.43;2.72;;;26.30;80.50;;;;;;5046382;28;20035;-49
2022/09/24 10:47:13;;;;;;;4.88;3.13;;;27.30;80.00;;;;;;5016018;28;20037;-50
2022/09/24 10:50:14;;;;;;;5.43;3.17;;;27.30;79.60;;;;;;5050223;28;20621;-51
2022/09/24 10:53:10;;;;;;;4.18;2.85;;;27.00;79.30;;;;;;5016122;28;20043;-49
2022/09/24 10:56:15;;;;;;;5.03;3.30;;;28.10;79.80;;;;;;5048924;28;20036;-50
2022/09/24 10:58:54;;;;;;;3.53;2.80;;;28.50;78.30;;;;;;5040730;28;20041;-50
2022/09/24 11:01:50;;;;;;;4.07;2.72;;;28.80;78.00;;;;;;5012127;28;20071;-50
2022/09/24 11:04:31;;;;;;;4.50;2.88;;;28.10;77.40;;;;;;5050273;28;20056;-51
2022/09/24 11:07:19;;;;;;;3.97;3.03;;;26.70;78.40;;;;;;5047213;28;20021;-51
2022/09/24 11:10:13;;;;;;;3.35;2.83;;;25.80;80.30;;;;;;5052247;28;20035;-51
2022/09/24 11:13:06;;;;;;;3.10;2.47;;;26.80;82.40;;;;;;5051856;28;20031;-51
2022/09/24 11:16:02;;;;;;;3.50;2.55;;;27.50;78.40;;;;;;5051694;28;20024;-49
2022/09/24 11:18:31;;;;;;;7.57;3.17;;;26.30;79.40;;;;;;5055834;28;20032;-52
2022/09/24 11:21:18;;;;;;;3.25;2.42;;;27.10;81.40;;;;;;5055353;28;20021;-51
2022/09/24 11:24:16;;;;;;;3.58;2.70;;;27.40;79.30;;;;;;5052035;28;20033;-49
2022/09/24 11:26:44;;;;;;;7.38;2.90;;;27.40;79.70;;;;;;5021322;28;20033;-51
2022/09/24 11:29:24;;;;;;;4.72;3.10;;;27.70;80.80;;;;;;5051952;28;20036;-50
2022/09/24 11:32:05;;;;;;;3.00;2.70;;;27.80;78.50;;;;;;5052543;28;20037;-49
2022/09/24 11:34:49;;;;;;;2.97;2.38;;;27.90;80.00;;;;;;5055057;28;20037;-49
2022/09/24 11:37:38;;;;;;;3.88;2.33;;;28.30;82.00;;;;;;5038538;28;20048;-49
2022/09/24 11:40:09;;;;;;;4.78;2.40;;;28.10;78.30;;;;;;5052867;28;20032;-51
2022/09/24 11:43:23;;;;;;;2.90;2.30;;;28.20;79.10;;;;;;5051411;28;20110;-49
2022/09/24 11:46:26;;;;;;;4.05;2.45;;;28.40;77.80;;;;;;4975322;28;20042;-52
2022/09/24 11:48:58;;;;;;;4.20;2.42;;;28.60;79.20;;;;;;4971994;28;20041;-49
2022/09/24 11:51:25;;;;;;;;;;;28.70;78.60;;;;;;4973017;28;20054;-50
2022/09/24 11:54:01;;;;;;;3.58;2.05;;;29.00;82.10;;;;;;4970438;28;19949;-49
2022/09/24 11:56:39;;;;;;;3.40;1.95;;;27.70;77.00;;;;;;4972334;28;20522;-51
2022/09/24 11:59:06;;;;;;;3.40;2.53;;;27.70;77.50;;;;;;4969885;28;20050;-51
2022/09/24 12:01:37;;;;;;;2.53;1.88;;;27.90;77.90;;;;;;4972691;28;20039;-51
2022/09/24 12:04:28;;;;;;;2.00;1.80;;;27.50;78.10;;;;;;4974241;28;20564;-52
2022/09/24 12:07:12;;;;;;;2.25;1.90;;;27.60;79.20;;;;;;4971704;28;20375;-51
2022/09/24 12:09:46;;;;;;;5.55;2.15;;;28.30;77.30;;;;;;4973398;28;20027;-53
2022/09/24 12:12:21;;;;;;;6.07;2.38;;;28.60;78.00;;;;;;4965791;28;20077;-51
2022/09/24 12:14:50;;;;;;;3.38;2.25;;;28.50;78.60;;;;;;4973109;28;20610;-52
2022/09/24 12:17:41;;;;;;;2.50;1.83;;;27.60;77.60;;;;;;4974017;28;20506;-51
2022/09/24 12:20:20;;;;;;;3.22;2.30;;;27.40;79.30;;;;;;5035130;28;20098;-51
2022/09/24 12:22:49;;;;;;;2.65;2.10;;;27.70;77.50;;;;;;5054662;28;20507;-51
2022/09/24 12:25:16;;;;;;;2.80;2.05;;;28.00;76.80;;;;;;5057575;28;20082;-51
2022/09/24 12:27:43;;;;;;;2.45;1.80;;;28.00;77.40;;;;;;5055506;28;20049;-51
2022/09/24 12:33:33;;;;;;;4.25;2.00;;;28.00;75.80;;;;;;5058263;28;20036;-52
2022/09/24 12:36:16;;;;;;;4.47;2.95;;;28.40;76.60;;;;;;5048846;28;20069;-51
2022/09/24 12:38:55;;;;;;;2.80;1.83;;;28.60;76.00;;;;;;5052965;28;20029;-51
2022/09/24 12:41:31;;;;;;;4.32;2.10;;;28.60;74.00;;;;;;5055722;28;20111;-51
2022/09/24 12:44:12;;;;;;;4.38;1.73;;;28.30;76.70;;;;;;5056084;28;20044;-51
2022/09/24 12:46:51;;;;;;;4.32;2.00;;;28.60;76.00;;;;;;5055551;28;20227;-51
2022/09/24 12:49:25;;;;;;;2.25;1.80;;;27.70;74.10;;;;;;5053568;28;20024;-52
2022/09/24 12:52:03;;;;;;;5.53;2.22;;;27.10;75.70;;;;;;5055931;28;20044;-51
2022/09/24 12:54:37;;;;;;;4.53;1.70;;;28.00;77.40;;;;;;5056253;28;20480;-51
2022/09/24 12:57:24;;;;;;;3.13;1.83;;;26.60;75.40;;;;;;5059513;28;20040;-51
2022/09/24 12:59:59;;;;;;;2.72;2.03;;;26.50;76.80;;;;;;5057613;28;20025;-51
2022/09/24 13:02:24;;;;;;;2.75;2.00;;;26.00;77.00;;;;;;5059976;28;20098;-51
2022/09/24 13:05:27;;;;;;;9.88;2.58;;;26.20;77.40;;;;;;5054562;28;20045;-51
2022/09/24 13:07:56;;;;;;;2.22;1.80;;;25.60;77.40;;;;;;5009103;28;20037;-51
2022/09/24 13:10:35;;;;;;;2.88;2.00;;;25.10;77.90;;;;;;5011975;28;20547;-52
2022/09/24 13:13:14;;;;;;;2.30;2.00;;;25.30;78.10;;;;;;4966762;28;20775;-50
2022/09/24 13:15:41;;;;;;;5.00;2.20;;;25.70;79.00;;;;;;5011500;28;20037;-52
2022/09/24 13:18:10;;;;;;;3.72;2.33;;;26.30;78.20;;;;;;5011037;28;20485;-51
2022/09/24 13:20:41;;;;;;;2.58;2.00;;;26.70;77.10;;;;;;5015195;28;20472;-50
2022/09/24 13:23:10;;;;;;;;;;;27.10;77.00;;;;;;5013483;28;20076;-53
2022/09/24 13:25:36;;;;;;;6.72;3.85;;;27.20;77.70;;;;;;5009580;28;19968;-52
2022/09/24 13:28:18;;;;;;;4.85;3.30;;;26.80;78.70;;;;;;5011099;28;20045;-51
2022/09/24 13:30:45;;;;;;;;;;;26.30;77.50;;;;;;5010609;28;20120;-51
2022/09/24 13:33:36;;;;;;;3.38;2.15;;;26.70;77.50;;;;;;5011897;28;20315;-51